sensor_id;sensor_type;location;lat;lon;timestamp;P1;durP1;ratioP1;P2;durP2;ratioP2
71566;SDS011;59403;47.456;19.120;2022-07-10T00:00:27;4.32;;;1.30;;
71566;SDS011;59403;47.456;19.120;2022-07-10T00:02:54;1.67;;;0.85;;
71566;SDS011;59403;47.456;19.120;2022-07-10T00:05:22;2.23;;;0.80;;
71566;SDS011;59403;47.456;19.120;2022-07-10T00:07:50;1.95;;;1.00;;
71566;SDS011;59403;47.456;19.120;2022-07-10T00:10:18;2.42;;;0.80;;
71566;SDS011;59403;47.456;19.120;2022-07-10T00:12:47;1.80;;;1.10;;
71566;SDS011;59403;47.456;19.120;2022-07-10T00:15:15;2.95;;;1.15;;
71566;SDS011;59403;47.456;19.120;2022-07-10T00:17:42;2.40;;;0.93;;
71566;SDS011;59403;47.456;19.120;2022-07-10T00:20:10;2.47;;;1.20;;
71566;SDS011;59403;47.456;19.120;2022-07-10T00:22:38;1.40;;;0.98;;
71566;SDS011;59403;47.456;19.120;2022-07-10T00:25:05;1.48;;;1.00;;
71566;SDS011;59403;47.456;19.120;2022-07-10T00:27:34;1.42;;;1.20;;
71566;SDS011;59403;47.456;19.120;2022-07-10T00:30:03;3.57;;;0.90;;
71566;SDS011;59403;47.456;19.120;2022-07-10T00:32:30;1.20;;;0.88;;
71566;SDS011;59403;47.456;19.120;2022-07-10T00:34:57;1.48;;;0.77;;
71566;SDS011;59403;47.456;19.120;2022-07-10T00:37:24;1.35;;;1.10;;
71566;SDS011;59403;47.456;19.120;2022-07-10T00:39:51;1.55;;;1.00;;
71566;SDS011;59403;47.456;19.120;2022-07-10T00:42:18;1.47;;;1.00;;
71566;SDS011;59403;47.456;19.120;2022-07-10T00:44:45;1.33;;;1.00;;
71566;SDS011;59403;47.456;19.120;2022-07-10T00:47:13;3.40;;;1.10;;
71566;SDS011;59403;47.456;19.120;2022-07-10T00:49:44;1.30;;;0.90;;
71566;SDS011;59403;47.456;19.120;2022-07-10T00:52:13;1.95;;;1.20;;
71566;SDS011;59403;47.456;19.120;2022-07-10T00:54:42;1.47;;;1.17;;
71566;SDS011;59403;47.456;19.120;2022-07-10T00:57:10;1.55;;;1.27;;
71566;SDS011;59403;47.456;19.120;2022-07-10T00:59:39;1.37;;;0.80;;
71566;SDS011;59403;47.456;19.120;2022-07-10T01:04:45;1.23;;;0.90;;
71566;SDS011;59403;47.456;19.120;2022-07-10T01:07:12;1.40;;;0.80;;
71566;SDS011;59403;47.456;19.120;2022-07-10T01:09:41;2.37;;;1.10;;
71566;SDS011;59403;47.456;19.120;2022-07-10T01:12:08;1.87;;;0.88;;
71566;SDS011;59403;47.456;19.120;2022-07-10T01:14:37;1.20;;;1.00;;
71566;SDS011;59403;47.456;19.120;2022-07-10T01:17:05;1.33;;;0.85;;
71566;SDS011;59403;47.456;19.120;2022-07-10T01:19:34;1.77;;;0.77;;
71566;SDS011;59403;47.456;19.120;2022-07-10T01:22:02;1.60;;;1.00;;
71566;SDS011;59403;47.456;19.120;2022-07-10T01:24:29;2.83;;;1.15;;
71566;SDS011;59403;47.456;19.120;2022-07-10T01:26:56;1.95;;;1.10;;
71566;SDS011;59403;47.456;19.120;2022-07-10T01:29:23;2.05;;;1.23;;
71566;SDS011;59403;47.456;19.120;2022-07-10T01:31:50;2.27;;;1.10;;
71566;SDS011;59403;47.456;19.120;2022-07-10T01:34:17;2.25;;;1.35;;
71566;SDS011;59403;47.456;19.120;2022-07-10T01:36:44;1.80;;;1.20;;
71566;SDS011;59403;47.456;19.120;2022-07-10T01:39:13;1.33;;;0.80;;
71566;SDS011;59403;47.456;19.120;2022-07-10T01:41:40;1.80;;;1.12;;
71566;SDS011;59403;47.456;19.120;2022-07-10T01:44:06;2.90;;;0.80;;
71566;SDS011;59403;47.456;19.120;2022-07-10T01:46:33;1.40;;;0.80;;
71566;SDS011;59403;47.456;19.120;2022-07-10T01:49:00;2.75;;;1.17;;
71566;SDS011;59403;47.456;19.120;2022-07-10T01:51:27;1.58;;;0.60;;
71566;SDS011;59403;47.456;19.120;2022-07-10T01:53:54;1.20;;;1.00;;
71566;SDS011;59403;47.456;19.120;2022-07-10T01:56:23;1.30;;;0.70;;
71566;SDS011;59403;47.456;19.120;2022-07-10T01:58:50;1.58;;;0.90;;
71566;SDS011;59403;47.456;19.120;2022-07-10T02:01:17;1.52;;;0.85;;
71566;SDS011;59403;47.456;19.120;2022-07-10T02:03:44;2.65;;;0.65;;
71566;SDS011;59403;47.456;19.120;2022-07-10T02:06:28;1.20;;;0.88;;
71566;SDS011;59403;47.456;19.120;2022-07-10T02:08:55;3.10;;;1.30;;
71566;SDS011;59403;47.456;19.120;2022-07-10T02:11:24;1.37;;;0.90;;
71566;SDS011;59403;47.456;19.120;2022-07-10T02:13:50;1.27;;;0.95;;
71566;SDS011;59403;47.456;19.120;2022-07-10T02:16:17;3.75;;;1.00;;
71566;SDS011;59403;47.456;19.120;2022-07-10T02:18:44;1.33;;;1.00;;
71566;SDS011;59403;47.456;19.120;2022-07-10T02:21:11;1.90;;;1.30;;
71566;SDS011;59403;47.456;19.120;2022-07-10T02:23:38;1.67;;;1.33;;
71566;SDS011;59403;47.456;19.120;2022-07-10T02:26:06;2.58;;;1.10;;
71566;SDS011;59403;47.456;19.120;2022-07-10T02:28:34;1.75;;;0.77;;
71566;SDS011;59403;47.456;19.120;2022-07-10T02:31:01;1.85;;;1.37;;
71566;SDS011;59403;47.456;19.120;2022-07-10T02:33:28;1.73;;;0.97;;
71566;SDS011;59403;47.456;19.120;2022-07-10T02:35:55;1.90;;;1.30;;
71566;SDS011;59403;47.456;19.120;2022-07-10T02:38:22;2.15;;;1.40;;
71566;SDS011;59403;47.456;19.120;2022-07-10T02:40:49;2.08;;;1.23;;
71566;SDS011;59403;47.456;19.120;2022-07-10T02:43:16;1.85;;;1.17;;
71566;SDS011;59403;47.456;19.120;2022-07-10T02:45:44;1.73;;;1.37;;
71566;SDS011;59403;47.456;19.120;2022-07-10T02:48:11;2.00;;;1.25;;
71566;SDS011;59403;47.456;19.120;2022-07-10T02:50:38;1.70;;;1.37;;
71566;SDS011;59403;47.456;19.120;2022-07-10T02:53:05;2.17;;;1.17;;
71566;SDS011;59403;47.456;19.120;2022-07-10T02:55:32;2.22;;;1.12;;
71566;SDS011;59403;47.456;19.120;2022-07-10T02:57:59;2.37;;;1.43;;
71566;SDS011;59403;47.456;19.120;2022-07-10T03:00:26;2.17;;;1.25;;
71566;SDS011;59403;47.456;19.120;2022-07-10T03:02:55;3.05;;;1.35;;
71566;SDS011;59403;47.456;19.120;2022-07-10T03:05:22;1.50;;;1.40;;
71566;SDS011;59403;47.456;19.120;2022-07-10T03:07:49;1.62;;;1.23;;
71566;SDS011;59403;47.456;19.120;2022-07-10T03:10:16;2.33;;;1.57;;
71566;SDS011;59403;47.456;19.120;2022-07-10T03:12:43;2.45;;;1.27;;
71566;SDS011;59403;47.456;19.120;2022-07-10T03:15:10;2.00;;;1.62;;
71566;SDS011;59403;47.456;19.120;2022-07-10T03:17:37;2.53;;;1.27;;
71566;SDS011;59403;47.456;19.120;2022-07-10T03:20:06;2.15;;;1.50;;
71566;SDS011;59403;47.456;19.120;2022-07-10T03:22:35;2.53;;;1.63;;
71566;SDS011;59403;47.456;19.120;2022-07-10T03:25:02;2.00;;;1.60;;
71566;SDS011;59403;47.456;19.120;2022-07-10T03:27:29;3.53;;;1.62;;
71566;SDS011;59403;47.456;19.120;2022-07-10T03:29:56;2.45;;;1.55;;
71566;SDS011;59403;47.456;19.120;2022-07-10T03:32:23;2.33;;;1.58;;
71566;SDS011;59403;47.456;19.120;2022-07-10T03:34:50;2.07;;;1.63;;
71566;SDS011;59403;47.456;19.120;2022-07-10T03:37:18;2.80;;;2.00;;
71566;SDS011;59403;47.456;19.120;2022-07-10T03:39:45;2.33;;;1.83;;
71566;SDS011;59403;47.456;19.120;2022-07-10T03:42:12;2.58;;;1.90;;
71566;SDS011;59403;47.456;19.120;2022-07-10T03:44:39;2.60;;;1.80;;
71566;SDS011;59403;47.456;19.120;2022-07-10T03:47:06;3.60;;;2.10;;
71566;SDS011;59403;47.456;19.120;2022-07-10T03:49:33;2.90;;;1.55;;
71566;SDS011;59403;47.456;19.120;2022-07-10T03:52:00;2.58;;;1.55;;
71566;SDS011;59403;47.456;19.120;2022-07-10T03:54:29;2.50;;;1.40;;
71566;SDS011;59403;47.456;19.120;2022-07-10T03:56:56;2.10;;;1.80;;
71566;SDS011;59403;47.456;19.120;2022-07-10T03:59:41;4.17;;;2.10;;
71566;SDS011;59403;47.456;19.120;2022-07-10T04:02:08;3.22;;;1.77;;
71566;SDS011;59403;47.456;19.120;2022-07-10T04:04:35;2.15;;;1.95;;
71566;SDS011;59403;47.456;19.120;2022-07-10T04:07:02;2.65;;;2.20;;
71566;SDS011;59403;47.456;19.120;2022-07-10T04:09:32;3.12;;;1.70;;
71566;SDS011;59403;47.456;19.120;2022-07-10T04:11:59;2.77;;;2.23;;
71566;SDS011;59403;47.456;19.120;2022-07-10T04:14:26;2.08;;;1.87;;
71566;SDS011;59403;47.456;19.120;2022-07-10T04:16:53;2.00;;;1.70;;
71566;SDS011;59403;47.456;19.120;2022-07-10T04:19:20;3.40;;;1.83;;
71566;SDS011;59403;47.456;19.120;2022-07-10T04:21:47;3.53;;;2.10;;
71566;SDS011;59403;47.456;19.120;2022-07-10T04:24:14;2.27;;;1.80;;
71566;SDS011;59403;47.456;19.120;2022-07-10T04:26:42;5.28;;;1.90;;
71566;SDS011;59403;47.456;19.120;2022-07-10T04:29:10;2.37;;;1.30;;
71566;SDS011;59403;47.456;19.120;2022-07-10T04:31:36;2.00;;;1.80;;
71566;SDS011;59403;47.456;19.120;2022-07-10T04:34:03;4.70;;;2.33;;
71566;SDS011;59403;47.456;19.120;2022-07-10T04:36:30;2.23;;;1.60;;
71566;SDS011;59403;47.456;19.120;2022-07-10T04:38:57;3.15;;;1.85;;
71566;SDS011;59403;47.456;19.120;2022-07-10T04:41:24;2.00;;;1.62;;
71566;SDS011;59403;47.456;19.120;2022-07-10T04:43:53;3.08;;;1.98;;
71566;SDS011;59403;47.456;19.120;2022-07-10T04:46:19;2.20;;;1.55;;
71566;SDS011;59403;47.456;19.120;2022-07-10T04:48:46;3.20;;;1.63;;
71566;SDS011;59403;47.456;19.120;2022-07-10T04:51:13;2.78;;;1.70;;
71566;SDS011;59403;47.456;19.120;2022-07-10T04:53:40;2.00;;;1.33;;
71566;SDS011;59403;47.456;19.120;2022-07-10T04:56:07;2.65;;;1.85;;
71566;SDS011;59403;47.456;19.120;2022-07-10T04:58:34;2.72;;;1.90;;
71566;SDS011;59403;47.456;19.120;2022-07-10T05:01:02;2.63;;;2.10;;
71566;SDS011;59403;47.456;19.120;2022-07-10T05:03:30;2.50;;;1.80;;
71566;SDS011;59403;47.456;19.120;2022-07-10T05:05:57;2.30;;;1.73;;
71566;SDS011;59403;47.456;19.120;2022-07-10T05:08:24;3.00;;;1.85;;
71566;SDS011;59403;47.456;19.120;2022-07-10T05:10:51;3.20;;;2.45;;
71566;SDS011;59403;47.456;19.120;2022-07-10T05:13:18;2.57;;;1.90;;
71566;SDS011;59403;47.456;19.120;2022-07-10T05:15:45;2.53;;;1.98;;
71566;SDS011;59403;47.456;19.120;2022-07-10T05:18:14;2.75;;;1.48;;
71566;SDS011;59403;47.456;19.120;2022-07-10T05:20:41;2.30;;;2.10;;
71566;SDS011;59403;47.456;19.120;2022-07-10T05:23:10;3.00;;;1.60;;
71566;SDS011;59403;47.456;19.120;2022-07-10T05:25:37;4.20;;;1.83;;
71566;SDS011;59403;47.456;19.120;2022-07-10T05:28:05;1.98;;;1.42;;
71566;SDS011;59403;47.456;19.120;2022-07-10T05:30:32;3.17;;;1.85;;
71566;SDS011;59403;47.456;19.120;2022-07-10T05:33:00;2.58;;;1.70;;
71566;SDS011;59403;47.456;19.120;2022-07-10T05:35:28;4.00;;;2.00;;
71566;SDS011;59403;47.456;19.120;2022-07-10T05:37:55;2.50;;;1.93;;
71566;SDS011;59403;47.456;19.120;2022-07-10T05:40:22;2.55;;;2.10;;
71566;SDS011;59403;47.456;19.120;2022-07-10T05:42:49;2.22;;;1.62;;
71566;SDS011;59403;47.456;19.120;2022-07-10T05:45:16;2.87;;;1.65;;
71566;SDS011;59403;47.456;19.120;2022-07-10T05:47:43;2.78;;;1.92;;
71566;SDS011;59403;47.456;19.120;2022-07-10T05:50:11;3.50;;;2.10;;
71566;SDS011;59403;47.456;19.120;2022-07-10T05:52:39;2.30;;;2.00;;
71566;SDS011;59403;47.456;19.120;2022-07-10T05:55:06;2.80;;;2.20;;
71566;SDS011;59403;47.456;19.120;2022-07-10T05:57:34;2.30;;;1.90;;
71566;SDS011;59403;47.456;19.120;2022-07-10T06:00:01;2.80;;;1.92;;
71566;SDS011;59403;47.456;19.120;2022-07-10T06:02:30;2.37;;;2.10;;
71566;SDS011;59403;47.456;19.120;2022-07-10T06:04:57;3.70;;;2.50;;
71566;SDS011;59403;47.456;19.120;2022-07-10T06:07:24;3.85;;;2.20;;
71566;SDS011;59403;47.456;19.120;2022-07-10T06:09:53;3.37;;;2.42;;
71566;SDS011;59403;47.456;19.120;2022-07-10T06:12:20;2.62;;;1.77;;
71566;SDS011;59403;47.456;19.120;2022-07-10T06:14:47;3.10;;;2.10;;
71566;SDS011;59403;47.456;19.120;2022-07-10T06:17:14;2.78;;;2.50;;
71566;SDS011;59403;47.456;19.120;2022-07-10T06:19:41;2.50;;;2.03;;
71566;SDS011;59403;47.456;19.120;2022-07-10T06:22:08;3.75;;;2.20;;
71566;SDS011;59403;47.456;19.120;2022-07-10T06:24:54;10.32;;;2.40;;
71566;SDS011;59403;47.456;19.120;2022-07-10T06:27:21;5.27;;;2.00;;
71566;SDS011;59403;47.456;19.120;2022-07-10T06:29:48;2.75;;;2.20;;
71566;SDS011;59403;47.456;19.120;2022-07-10T06:32:15;3.87;;;2.08;;
71566;SDS011;59403;47.456;19.120;2022-07-10T06:34:42;4.18;;;2.20;;
71566;SDS011;59403;47.456;19.120;2022-07-10T06:37:09;2.40;;;2.20;;
71566;SDS011;59403;47.456;19.120;2022-07-10T06:39:37;3.20;;;2.30;;
71566;SDS011;59403;47.456;19.120;2022-07-10T06:42:05;3.85;;;2.58;;
71566;SDS011;59403;47.456;19.120;2022-07-10T06:44:33;3.08;;;2.40;;
71566;SDS011;59403;47.456;19.120;2022-07-10T06:47:00;2.25;;;2.05;;
71566;SDS011;59403;47.456;19.120;2022-07-10T06:49:45;4.97;;;2.20;;
71566;SDS011;59403;47.456;19.120;2022-07-10T06:52:14;4.47;;;2.37;;
71566;SDS011;59403;47.456;19.120;2022-07-10T06:54:41;3.08;;;2.08;;
71566;SDS011;59403;47.456;19.120;2022-07-10T06:57:10;2.28;;;2.08;;
71566;SDS011;59403;47.456;19.120;2022-07-10T06:59:38;3.50;;;2.28;;
71566;SDS011;59403;47.456;19.120;2022-07-10T07:02:05;2.92;;;2.40;;
71566;SDS011;59403;47.456;19.120;2022-07-10T07:04:32;2.63;;;2.43;;
71566;SDS011;59403;47.456;19.120;2022-07-10T07:06:59;2.75;;;2.22;;
71566;SDS011;59403;47.456;19.120;2022-07-10T07:09:27;2.83;;;2.00;;
71566;SDS011;59403;47.456;19.120;2022-07-10T07:11:54;2.40;;;1.95;;
71566;SDS011;59403;47.456;19.120;2022-07-10T07:14:22;2.95;;;2.12;;
71566;SDS011;59403;47.456;19.120;2022-07-10T07:16:49;4.67;;;2.10;;
71566;SDS011;59403;47.456;19.120;2022-07-10T07:19:25;2.50;;;1.90;;
71566;SDS011;59403;47.456;19.120;2022-07-10T07:21:57;2.65;;;1.80;;
71566;SDS011;59403;47.456;19.120;2022-07-10T07:24:42;2.20;;;2.00;;
71566;SDS011;59403;47.456;19.120;2022-07-10T07:27:09;2.53;;;1.95;;
71566;SDS011;59403;47.456;19.120;2022-07-10T07:29:38;2.20;;;1.93;;
71566;SDS011;59403;47.456;19.120;2022-07-10T07:32:05;3.15;;;2.20;;
71566;SDS011;59403;47.456;19.120;2022-07-10T07:34:32;2.95;;;2.20;;
71566;SDS011;59403;47.456;19.120;2022-07-10T07:36:59;2.17;;;1.62;;
71566;SDS011;59403;47.456;19.120;2022-07-10T07:39:26;2.28;;;1.60;;
71566;SDS011;59403;47.456;19.120;2022-07-10T07:41:53;3.60;;;1.67;;
71566;SDS011;59403;47.456;19.120;2022-07-10T07:44:20;1.77;;;1.60;;
71566;SDS011;59403;47.456;19.120;2022-07-10T07:46:48;2.47;;;1.80;;
71566;SDS011;59403;47.456;19.120;2022-07-10T07:49:15;2.37;;;1.45;;
71566;SDS011;59403;47.456;19.120;2022-07-10T07:51:42;1.70;;;1.60;;
71566;SDS011;59403;47.456;19.120;2022-07-10T07:54:09;2.40;;;1.50;;
71566;SDS011;59403;47.456;19.120;2022-07-10T07:56:36;2.22;;;1.30;;
71566;SDS011;59403;47.456;19.120;2022-07-10T07:59:03;3.33;;;1.62;;
71566;SDS011;59403;47.456;19.120;2022-07-10T08:01:30;1.90;;;1.65;;
71566;SDS011;59403;47.456;19.120;2022-07-10T08:03:58;2.62;;;1.58;;
71566;SDS011;59403;47.456;19.120;2022-07-10T08:06:25;2.70;;;1.43;;
71566;SDS011;59403;47.456;19.120;2022-07-10T08:08:52;3.45;;;1.50;;
71566;SDS011;59403;47.456;19.120;2022-07-10T08:11:19;2.10;;;1.62;;
71566;SDS011;59403;47.456;19.120;2022-07-10T08:13:45;2.50;;;1.40;;
71566;SDS011;59403;47.456;19.120;2022-07-10T08:16:12;1.85;;;1.30;;
71566;SDS011;59403;47.456;19.120;2022-07-10T08:18:39;2.30;;;1.80;;
71566;SDS011;59403;47.456;19.120;2022-07-10T08:21:07;2.67;;;1.67;;
71566;SDS011;59403;47.456;19.120;2022-07-10T08:23:34;2.97;;;2.00;;
71566;SDS011;59403;47.456;19.120;2022-07-10T08:26:01;1.65;;;1.55;;
71566;SDS011;59403;47.456;19.120;2022-07-10T08:28:28;3.55;;;1.73;;
71566;SDS011;59403;47.456;19.120;2022-07-10T08:30:55;2.40;;;1.60;;
71566;SDS011;59403;47.456;19.120;2022-07-10T08:33:22;3.33;;;1.35;;
71566;SDS011;59403;47.456;19.120;2022-07-10T08:35:49;2.08;;;1.40;;
71566;SDS011;59403;47.456;19.120;2022-07-10T08:38:18;2.37;;;1.33;;
71566;SDS011;59403;47.456;19.120;2022-07-10T08:40:44;1.87;;;1.62;;
71566;SDS011;59403;47.456;19.120;2022-07-10T08:43:12;2.10;;;1.77;;
71566;SDS011;59403;47.456;19.120;2022-07-10T08:45:39;2.28;;;1.37;;
71566;SDS011;59403;47.456;19.120;2022-07-10T08:48:06;3.28;;;1.40;;
71566;SDS011;59403;47.456;19.120;2022-07-10T08:50:37;3.15;;;1.50;;
71566;SDS011;59403;47.456;19.120;2022-07-10T08:53:07;2.10;;;1.67;;
71566;SDS011;59403;47.456;19.120;2022-07-10T08:55:37;1.80;;;1.40;;
71566;SDS011;59403;47.456;19.120;2022-07-10T08:58:04;6.15;;;1.70;;
71566;SDS011;59403;47.456;19.120;2022-07-10T09:00:34;2.10;;;1.55;;
71566;SDS011;59403;47.456;19.120;2022-07-10T09:03:01;1.83;;;1.40;;
71566;SDS011;59403;47.456;19.120;2022-07-10T09:05:28;3.50;;;1.67;;
71566;SDS011;59403;47.456;19.120;2022-07-10T09:07:55;1.90;;;1.63;;
71566;SDS011;59403;47.456;19.120;2022-07-10T09:10:24;3.58;;;1.55;;
71566;SDS011;59403;47.456;19.120;2022-07-10T09:12:54;2.40;;;1.42;;
71566;SDS011;59403;47.456;19.120;2022-07-10T09:15:22;2.85;;;0.90;;
71566;SDS011;59403;47.456;19.120;2022-07-10T09:17:51;2.78;;;1.30;;
71566;SDS011;59403;47.456;19.120;2022-07-10T09:20:26;5.43;;;1.57;;
71566;SDS011;59403;47.456;19.120;2022-07-10T09:22:56;2.33;;;1.50;;
71566;SDS011;59403;47.456;19.120;2022-07-10T09:25:29;2.65;;;2.00;;
71566;SDS011;59403;47.456;19.120;2022-07-10T09:28:01;2.85;;;1.67;;
71566;SDS011;59403;47.456;19.120;2022-07-10T09:30:31;2.47;;;1.90;;
71566;SDS011;59403;47.456;19.120;2022-07-10T09:33:18;3.17;;;2.03;;
71566;SDS011;59403;47.456;19.120;2022-07-10T09:35:54;2.60;;;1.60;;
71566;SDS011;59403;47.456;19.120;2022-07-10T09:38:50;2.22;;;1.60;;
71566;SDS011;59403;47.456;19.120;2022-07-10T09:41:20;3.05;;;1.50;;
71566;SDS011;59403;47.456;19.120;2022-07-10T09:43:50;5.37;;;1.40;;
71566;SDS011;59403;47.456;19.120;2022-07-10T09:46:19;5.30;;;1.30;;
71566;SDS011;59403;47.456;19.120;2022-07-10T09:48:47;2.45;;;1.15;;
71566;SDS011;59403;47.456;19.120;2022-07-10T09:51:16;2.05;;;1.25;;
71566;SDS011;59403;47.456;19.120;2022-07-10T09:53:43;3.28;;;1.17;;
71566;SDS011;59403;47.456;19.120;2022-07-10T09:56:11;2.37;;;1.10;;
71566;SDS011;59403;47.456;19.120;2022-07-10T09:58:39;3.00;;;1.60;;
71566;SDS011;59403;47.456;19.120;2022-07-10T10:01:08;1.67;;;1.30;;
71566;SDS011;59403;47.456;19.120;2022-07-10T10:03:36;2.12;;;1.15;;
71566;SDS011;59403;47.456;19.120;2022-07-10T10:06:05;2.15;;;1.17;;
71566;SDS011;59403;47.456;19.120;2022-07-10T10:08:41;3.08;;;1.27;;
71566;SDS011;59403;47.456;19.120;2022-07-10T10:11:14;2.40;;;1.60;;
71566;SDS011;59403;47.456;19.120;2022-07-10T10:13:46;1.77;;;1.42;;
71566;SDS011;59403;47.456;19.120;2022-07-10T10:16:16;2.85;;;0.90;;
71566;SDS011;59403;47.456;19.120;2022-07-10T10:18:45;3.10;;;1.17;;
71566;SDS011;59403;47.456;19.120;2022-07-10T10:21:30;2.92;;;1.42;;
71566;SDS011;59403;47.456;19.120;2022-07-10T10:23:59;1.73;;;1.57;;
71566;SDS011;59403;47.456;19.120;2022-07-10T10:26:28;1.50;;;1.00;;
71566;SDS011;59403;47.456;19.120;2022-07-10T10:28:56;2.12;;;1.20;;
71566;SDS011;59403;47.456;19.120;2022-07-10T10:31:27;2.60;;;1.33;;
71566;SDS011;59403;47.456;19.120;2022-07-10T10:33:56;2.42;;;1.17;;
71566;SDS011;59403;47.456;19.120;2022-07-10T10:39:12;1.45;;;0.85;;
71566;SDS011;59403;47.456;19.120;2022-07-10T10:41:41;1.58;;;0.85;;
71566;SDS011;59403;47.456;19.120;2022-07-10T10:44:25;1.65;;;1.40;;
71566;SDS011;59403;47.456;19.120;2022-07-10T10:47:02;1.52;;;1.08;;
71566;SDS011;59403;47.456;19.120;2022-07-10T10:52:30;2.72;;;1.00;;
71566;SDS011;59403;47.456;19.120;2022-07-10T10:55:06;2.25;;;1.45;;
71566;SDS011;59403;47.456;19.120;2022-07-10T10:57:38;2.12;;;1.25;;
71566;SDS011;59403;47.456;19.120;2022-07-10T11:03:13;2.13;;;0.97;;
71566;SDS011;59403;47.456;19.120;2022-07-10T11:05:42;2.12;;;1.15;;
71566;SDS011;59403;47.456;19.120;2022-07-10T11:08:09;1.42;;;0.90;;
71566;SDS011;59403;47.456;19.120;2022-07-10T11:10:38;1.40;;;1.10;;
71566;SDS011;59403;47.456;19.120;2022-07-10T11:13:06;1.70;;;0.88;;
71566;SDS011;59403;47.456;19.120;2022-07-10T11:15:34;1.97;;;0.90;;
71566;SDS011;59403;47.456;19.120;2022-07-10T11:18:03;3.67;;;1.10;;
71566;SDS011;59403;47.456;19.120;2022-07-10T11:20:35;3.22;;;1.02;;
71566;SDS011;59403;47.456;19.120;2022-07-10T11:23:16;2.37;;;1.00;;
71566;SDS011;59403;47.456;19.120;2022-07-10T11:25:54;2.17;;;0.85;;
71566;SDS011;59403;47.456;19.120;2022-07-10T11:28:35;8.73;;;1.10;;
71566;SDS011;59403;47.456;19.120;2022-07-10T11:31:15;3.25;;;1.27;;
71566;SDS011;59403;47.456;19.120;2022-07-10T11:33:43;4.45;;;1.40;;
71566;SDS011;59403;47.456;19.120;2022-07-10T11:36:15;2.20;;;1.10;;
71566;SDS011;59403;47.456;19.120;2022-07-10T11:38:43;1.55;;;1.12;;
71566;SDS011;59403;47.456;19.120;2022-07-10T11:41:18;5.50;;;1.33;;
71566;SDS011;59403;47.456;19.120;2022-07-10T11:43:48;1.55;;;0.98;;
71566;SDS011;59403;47.456;19.120;2022-07-10T11:46:16;4.30;;;1.45;;
71566;SDS011;59403;47.456;19.120;2022-07-10T11:48:45;2.25;;;0.95;;
71566;SDS011;59403;47.456;19.120;2022-07-10T11:51:17;2.58;;;1.65;;
71566;SDS011;59403;47.456;19.120;2022-07-10T11:53:54;4.97;;;1.30;;
71566;SDS011;59403;47.456;19.120;2022-07-10T11:56:23;4.53;;;1.35;;
71566;SDS011;59403;47.456;19.120;2022-07-10T11:58:54;3.30;;;1.20;;
71566;SDS011;59403;47.456;19.120;2022-07-10T12:01:22;4.22;;;1.40;;
71566;SDS011;59403;47.456;19.120;2022-07-10T12:03:55;1.60;;;1.17;;
71566;SDS011;59403;47.456;19.120;2022-07-10T12:06:25;3.30;;;1.40;;
71566;SDS011;59403;47.456;19.120;2022-07-10T12:08:53;3.67;;;1.20;;
71566;SDS011;59403;47.456;19.120;2022-07-10T12:11:21;7.15;;;1.12;;
71566;SDS011;59403;47.456;19.120;2022-07-10T12:13:49;3.25;;;1.30;;
71566;SDS011;59403;47.456;19.120;2022-07-10T12:16:17;2.78;;;1.20;;
71566;SDS011;59403;47.456;19.120;2022-07-10T12:18:45;1.70;;;0.80;;
71566;SDS011;59403;47.456;19.120;2022-07-10T12:21:13;2.47;;;0.93;;
71566;SDS011;59403;47.456;19.120;2022-07-10T12:23:42;4.87;;;1.40;;
71566;SDS011;59403;47.456;19.120;2022-07-10T12:26:11;3.22;;;1.20;;
71566;SDS011;59403;47.456;19.120;2022-07-10T12:28:52;1.48;;;1.12;;
71566;SDS011;59403;47.456;19.120;2022-07-10T12:31:24;6.43;;;1.47;;
71566;SDS011;59403;47.456;19.120;2022-07-10T12:33:53;2.10;;;0.80;;
71566;SDS011;59403;47.456;19.120;2022-07-10T12:36:23;4.15;;;1.12;;
71566;SDS011;59403;47.456;19.120;2022-07-10T12:38:56;3.42;;;1.17;;
71566;SDS011;59403;47.456;19.120;2022-07-10T12:41:25;2.22;;;1.00;;
71566;SDS011;59403;47.456;19.120;2022-07-10T12:43:52;1.30;;;1.10;;
71566;SDS011;59403;47.456;19.120;2022-07-10T12:46:21;4.72;;;1.10;;
71566;SDS011;59403;47.456;19.120;2022-07-10T12:49:01;2.03;;;0.93;;
71566;SDS011;59403;47.456;19.120;2022-07-10T12:51:30;5.57;;;1.30;;
71566;SDS011;59403;47.456;19.120;2022-07-10T12:53:59;2.30;;;1.40;;
71566;SDS011;59403;47.456;19.120;2022-07-10T12:56:27;1.50;;;1.00;;
71566;SDS011;59403;47.456;19.120;2022-07-10T12:58:55;2.70;;;1.10;;
71566;SDS011;59403;47.456;19.120;2022-07-10T13:01:22;3.03;;;1.00;;
71566;SDS011;59403;47.456;19.120;2022-07-10T13:03:56;2.62;;;1.17;;
71566;SDS011;59403;47.456;19.120;2022-07-10T13:06:27;3.25;;;1.40;;
71566;SDS011;59403;47.456;19.120;2022-07-10T13:08:55;3.30;;;1.20;;
71566;SDS011;59403;47.456;19.120;2022-07-10T13:11:24;1.30;;;1.00;;
71566;SDS011;59403;47.456;19.120;2022-07-10T13:13:52;2.55;;;0.77;;
71566;SDS011;59403;47.456;19.120;2022-07-10T13:16:19;1.37;;;0.82;;
71566;SDS011;59403;47.456;19.120;2022-07-10T13:18:47;2.97;;;0.90;;
71566;SDS011;59403;47.456;19.120;2022-07-10T13:21:14;3.40;;;1.30;;
71566;SDS011;59403;47.456;19.120;2022-07-10T13:23:41;5.15;;;1.33;;
71566;SDS011;59403;47.456;19.120;2022-07-10T13:26:09;4.85;;;0.85;;
71566;SDS011;59403;47.456;19.120;2022-07-10T13:28:37;2.62;;;1.23;;
71566;SDS011;59403;47.456;19.120;2022-07-10T13:31:04;3.15;;;1.20;;
71566;SDS011;59403;47.456;19.120;2022-07-10T13:33:32;2.67;;;0.93;;
71566;SDS011;59403;47.456;19.120;2022-07-10T13:36:00;13.75;;;1.42;;
71566;SDS011;59403;47.456;19.120;2022-07-10T13:38:27;2.90;;;1.30;;
71566;SDS011;59403;47.456;19.120;2022-07-10T13:40:55;2.33;;;1.27;;
71566;SDS011;59403;47.456;19.120;2022-07-10T13:43:21;8.07;;;1.50;;
71566;SDS011;59403;47.456;19.120;2022-07-10T13:45:55;1.80;;;1.30;;
71566;SDS011;59403;47.456;19.120;2022-07-10T13:48:23;2.33;;;1.40;;
71566;SDS011;59403;47.456;19.120;2022-07-10T13:50:51;2.83;;;1.37;;
71566;SDS011;59403;47.456;19.120;2022-07-10T13:53:18;2.33;;;0.90;;
71566;SDS011;59403;47.456;19.120;2022-07-10T13:55:46;3.22;;;1.30;;
71566;SDS011;59403;47.456;19.120;2022-07-10T13:58:13;2.77;;;1.50;;
71566;SDS011;59403;47.456;19.120;2022-07-10T14:00:41;6.35;;;1.40;;
71566;SDS011;59403;47.456;19.120;2022-07-10T14:03:09;5.12;;;1.30;;
71566;SDS011;59403;47.456;19.120;2022-07-10T14:05:37;9.00;;;1.77;;
71566;SDS011;59403;47.456;19.120;2022-07-10T14:08:04;3.05;;;1.10;;
71566;SDS011;59403;47.456;19.120;2022-07-10T14:10:31;2.60;;;1.17;;
71566;SDS011;59403;47.456;19.120;2022-07-10T14:12:58;2.75;;;1.33;;
71566;SDS011;59403;47.456;19.120;2022-07-10T14:15:25;3.17;;;1.20;;
71566;SDS011;59403;47.456;19.120;2022-07-10T14:17:52;2.72;;;1.35;;
71566;SDS011;59403;47.456;19.120;2022-07-10T14:20:21;3.60;;;1.10;;
71566;SDS011;59403;47.456;19.120;2022-07-10T14:22:48;3.53;;;1.00;;
71566;SDS011;59403;47.456;19.120;2022-07-10T14:25:15;3.72;;;0.88;;
71566;SDS011;59403;47.456;19.120;2022-07-10T14:27:43;4.12;;;1.10;;
71566;SDS011;59403;47.456;19.120;2022-07-10T14:30:10;3.33;;;0.88;;
71566;SDS011;59403;47.456;19.120;2022-07-10T14:32:37;5.10;;;1.17;;
71566;SDS011;59403;47.456;19.120;2022-07-10T14:35:04;3.03;;;1.37;;
71566;SDS011;59403;47.456;19.120;2022-07-10T14:37:35;4.10;;;1.12;;
71566;SDS011;59403;47.456;19.120;2022-07-10T14:40:02;3.12;;;0.93;;
71566;SDS011;59403;47.456;19.120;2022-07-10T14:42:30;2.17;;;1.20;;
71566;SDS011;59403;47.456;19.120;2022-07-10T14:44:57;6.85;;;1.20;;
71566;SDS011;59403;47.456;19.120;2022-07-10T14:47:24;7.80;;;1.63;;
71566;SDS011;59403;47.456;19.120;2022-07-10T14:49:54;6.28;;;1.15;;
71566;SDS011;59403;47.456;19.120;2022-07-10T14:52:21;3.22;;;1.48;;